sensor_id;sensor_type;location;lat;lon;timestamp;P1;durP1;ratioP1;P2;durP2;ratioP2
72882;SDS011;61017;37.812;-122.286;2023-04-03T05:35:45;5.78;;;1.13;;
72882;SDS011;61017;37.812;-122.286;2023-04-03T05:37:16;3.50;;;0.95;;
72882;SDS011;61017;37.812;-122.286;2023-04-03T05:38:48;6.88;;;1.20;;
72882;SDS011;61017;37.812;-122.286;2023-04-03T05:40:20;3.45;;;0.90;;
72882;SDS011;61017;37.812;-122.286;2023-04-03T05:41:52;3.65;;;0.90;;
72882;SDS011;61017;37.812;-122.286;2023-04-03T05:43:23;3.33;;;0.80;;
72882;SDS011;61017;37.812;-122.286;2023-04-03T05:44:55;4.55;;;1.00;;
72882;SDS011;61017;37.812;-122.286;2023-04-03T05:46:26;3.05;;;1.02;;
72882;SDS011;61017;37.812;-122.286;2023-04-03T05:47:58;3.75;;;1.05;;
72882;SDS011;61017;37.812;-122.286;2023-04-03T05:49:30;3.70;;;0.93;;
72882;SDS011;61017;37.812;-122.286;2023-04-03T05:51:02;5.93;;;0.90;;
72882;SDS011;61017;37.812;-122.286;2023-04-03T05:52:35;7.03;;;1.10;;
72882;SDS011;61017;37.812;-122.286;2023-04-03T05:55:51;5.28;;;1.10;;
72882;SDS011;61017;37.812;-122.286;2023-04-03T05:57:22;5.90;;;1.13;;
72882;SDS011;61017;37.812;-122.286;2023-04-03T05:58:54;3.25;;;0.90;;
72882;SDS011;61017;37.812;-122.286;2023-04-03T06:00:29;2.78;;;0.80;;
72882;SDS011;61017;37.812;-122.286;2023-04-03T06:02:00;1.60;;;0.77;;
72882;SDS011;61017;37.812;-122.286;2023-04-03T06:03:32;5.72;;;0.95;;
72882;SDS011;61017;37.812;-122.286;2023-04-03T06:05:03;5.95;;;0.80;;
72882;SDS011;61017;37.812;-122.286;2023-04-03T06:06:49;6.38;;;1.45;;
72882;SDS011;61017;37.812;-122.286;2023-04-03T06:08:22;2.80;;;0.90;;
72882;SDS011;61017;37.812;-122.286;2023-04-03T06:09:54;3.25;;;0.90;;
72882;SDS011;61017;37.812;-122.286;2023-04-03T06:11:27;4.00;;;1.00;;
72882;SDS011;61017;37.812;-122.286;2023-04-03T06:12:58;3.55;;;0.90;;
72882;SDS011;61017;37.812;-122.286;2023-04-03T06:14:30;4.03;;;0.80;;
72882;SDS011;61017;37.812;-122.286;2023-04-03T06:16:02;3.40;;;0.90;;
72882;SDS011;61017;37.812;-122.286;2023-04-03T06:17:33;4.47;;;0.93;;
72882;SDS011;61017;37.812;-122.286;2023-04-03T06:19:05;3.72;;;0.90;;
72882;SDS011;61017;37.812;-122.286;2023-04-03T06:20:56;2.25;;;0.65;;
72882;SDS011;61017;37.812;-122.286;2023-04-03T06:22:28;3.17;;;0.80;;
72882;SDS011;61017;37.812;-122.286;2023-04-03T06:24:00;3.47;;;1.10;;
72882;SDS011;61017;37.812;-122.286;2023-04-03T06:25:32;3.35;;;0.80;;
72882;SDS011;61017;37.812;-122.286;2023-04-03T06:27:04;2.80;;;0.80;;
72882;SDS011;61017;37.812;-122.286;2023-04-03T06:28:35;4.18;;;0.77;;
72882;SDS011;61017;37.812;-122.286;2023-04-03T06:30:07;5.47;;;0.80;;
72882;SDS011;61017;37.812;-122.286;2023-04-03T06:31:39;4.07;;;0.90;;
72882;SDS011;61017;37.812;-122.286;2023-04-03T06:33:10;2.53;;;0.80;;
72882;SDS011;61017;37.812;-122.286;2023-04-03T06:34:42;4.05;;;0.80;;
72882;SDS011;61017;37.812;-122.286;2023-04-03T06:36:13;3.05;;;0.88;;
72882;SDS011;61017;37.812;-122.286;2023-04-03T06:37:46;1.88;;;0.68;;
72882;SDS011;61017;37.812;-122.286;2023-04-03T06:39:18;2.40;;;0.70;;
72882;SDS011;61017;37.812;-122.286;2023-04-03T06:40:51;2.47;;;0.80;;
72882;SDS011;61017;37.812;-122.286;2023-04-03T06:42:23;3.25;;;0.70;;
72882;SDS011;61017;37.812;-122.286;2023-04-03T06:43:54;4.88;;;0.80;;
72882;SDS011;61017;37.812;-122.286;2023-04-03T06:45:26;3.03;;;0.82;;
72882;SDS011;61017;37.812;-122.286;2023-04-03T06:46:58;3.58;;;0.80;;
72882;SDS011;61017;37.812;-122.286;2023-04-03T06:48:29;3.13;;;0.60;;
72882;SDS011;61017;37.812;-122.286;2023-04-03T06:50:01;4.68;;;0.90;;
72882;SDS011;61017;37.812;-122.286;2023-04-03T06:51:33;2.33;;;0.70;;
72882;SDS011;61017;37.812;-122.286;2023-04-03T06:53:06;4.20;;;0.82;;
72882;SDS011;61017;37.812;-122.286;2023-04-03T06:54:39;4.22;;;0.77;;
72882;SDS011;61017;37.812;-122.286;2023-04-03T06:56:12;2.15;;;0.57;;
72882;SDS011;61017;37.812;-122.286;2023-04-03T06:57:43;3.67;;;0.80;;
72882;SDS011;61017;37.812;-122.286;2023-04-03T06:59:15;3.00;;;0.75;;
72882;SDS011;61017;37.812;-122.286;2023-04-03T07:00:46;3.63;;;0.90;;
72882;SDS011;61017;37.812;-122.286;2023-04-03T07:02:18;3.30;;;0.80;;
72882;SDS011;61017;37.812;-122.286;2023-04-03T07:03:49;3.28;;;0.80;;
72882;SDS011;61017;37.812;-122.286;2023-04-03T07:05:21;4.55;;;0.90;;
72882;SDS011;61017;37.812;-122.286;2023-04-03T07:06:53;2.97;;;0.70;;
72882;SDS011;61017;37.812;-122.286;2023-04-03T07:08:24;3.40;;;0.70;;
72882;SDS011;61017;37.812;-122.286;2023-04-03T07:09:56;4.35;;;0.95;;
72882;SDS011;61017;37.812;-122.286;2023-04-03T07:11:27;2.65;;;0.70;;
72882;SDS011;61017;37.812;-122.286;2023-04-03T07:12:59;3.88;;;0.80;;
72882;SDS011;61017;37.812;-122.286;2023-04-03T07:14:30;3.58;;;0.95;;
72882;SDS011;61017;37.812;-122.286;2023-04-03T07:16:02;2.55;;;0.77;;
72882;SDS011;61017;37.812;-122.286;2023-04-03T07:17:35;4.10;;;0.82;;
72882;SDS011;61017;37.812;-122.286;2023-04-03T07:19:06;3.38;;;0.73;;
72882;SDS011;61017;37.812;-122.286;2023-04-03T07:20:38;4.53;;;0.80;;
72882;SDS011;61017;37.812;-122.286;2023-04-03T07:22:10;4.82;;;1.00;;
72882;SDS011;61017;37.812;-122.286;2023-04-03T07:23:41;6.97;;;0.90;;
72882;SDS011;61017;37.812;-122.286;2023-04-03T07:25:13;4.38;;;1.05;;
72882;SDS011;61017;37.812;-122.286;2023-04-03T07:26:48;2.38;;;0.70;;
72882;SDS011;61017;37.812;-122.286;2023-04-03T07:28:22;2.88;;;0.70;;
72882;SDS011;61017;37.812;-122.286;2023-04-03T07:29:54;3.78;;;0.95;;
72882;SDS011;61017;37.812;-122.286;2023-04-03T07:31:26;5.22;;;1.15;;
72882;SDS011;61017;37.812;-122.286;2023-04-03T07:32:57;4.07;;;0.73;;
72882;SDS011;61017;37.812;-122.286;2023-04-03T07:34:29;2.65;;;0.70;;
72882;SDS011;61017;37.812;-122.286;2023-04-03T07:36:01;3.03;;;0.68;;
72882;SDS011;61017;37.812;-122.286;2023-04-03T07:37:33;3.05;;;0.80;;
72882;SDS011;61017;37.812;-122.286;2023-04-03T07:39:04;3.03;;;0.90;;
72882;SDS011;61017;37.812;-122.286;2023-04-03T07:40:36;3.75;;;0.80;;
72882;SDS011;61017;37.812;-122.286;2023-04-03T07:42:09;2.83;;;0.80;;
72882;SDS011;61017;37.812;-122.286;2023-04-03T07:43:45;3.88;;;0.75;;
72882;SDS011;61017;37.812;-122.286;2023-04-03T07:45:16;3.20;;;0.93;;
72882;SDS011;61017;37.812;-122.286;2023-04-03T07:46:48;2.47;;;0.73;;
72882;SDS011;61017;37.812;-122.286;2023-04-03T07:48:23;4.05;;;0.70;;
72882;SDS011;61017;37.812;-122.286;2023-04-03T07:49:57;2.28;;;0.68;;
72882;SDS011;61017;37.812;-122.286;2023-04-03T07:51:28;3.65;;;0.70;;
72882;SDS011;61017;37.812;-122.286;2023-04-03T07:53:00;4.20;;;0.95;;
72882;SDS011;61017;37.812;-122.286;2023-04-03T07:54:31;4.38;;;0.90;;
72882;SDS011;61017;37.812;-122.286;2023-04-03T07:56:04;4.20;;;0.80;;
72882;SDS011;61017;37.812;-122.286;2023-04-03T07:57:36;4.35;;;0.80;;
72882;SDS011;61017;37.812;-122.286;2023-04-03T07:59:08;3.15;;;0.90;;
72882;SDS011;61017;37.812;-122.286;2023-04-03T08:00:40;4.55;;;0.95;;
72882;SDS011;61017;37.812;-122.286;2023-04-03T08:02:12;4.55;;;0.80;;
72882;SDS011;61017;37.812;-122.286;2023-04-03T08:03:44;4.65;;;0.82;;
72882;SDS011;61017;37.812;-122.286;2023-04-03T08:05:16;3.25;;;0.80;;
72882;SDS011;61017;37.812;-122.286;2023-04-03T08:06:51;5.72;;;0.80;;
72882;SDS011;61017;37.812;-122.286;2023-04-03T08:08:23;6.32;;;0.80;;
72882;SDS011;61017;37.812;-122.286;2023-04-03T08:09:55;3.95;;;0.70;;
72882;SDS011;61017;37.812;-122.286;2023-04-03T09:33:56;4.57;;;1.25;;
72882;SDS011;61017;37.812;-122.286;2023-04-03T09:35:33;3.85;;;1.02;;
72882;SDS011;61017;37.812;-122.286;2023-04-03T09:37:09;5.05;;;1.58;;
72882;SDS011;61017;37.812;-122.286;2023-04-03T09:39:15;4.32;;;1.05;;
72882;SDS011;61017;37.812;-122.286;2023-04-03T09:40:49;5.97;;;1.20;;
72882;SDS011;61017;37.812;-122.286;2023-04-03T09:42:34;6.50;;;1.13;;
72882;SDS011;61017;37.812;-122.286;2023-04-03T09:44:23;5.70;;;1.25;;
72882;SDS011;61017;37.812;-122.286;2023-04-03T09:46:24;6.00;;;1.08;;
72882;SDS011;61017;37.812;-122.286;2023-04-03T09:48:04;2.63;;;0.70;;
72882;SDS011;61017;37.812;-122.286;2023-04-03T09:51:48;4.22;;;1.02;;
72882;SDS011;61017;37.812;-122.286;2023-04-03T09:53:30;5.60;;;1.00;;
72882;SDS011;61017;37.812;-122.286;2023-04-03T09:55:23;2.90;;;1.00;;
72882;SDS011;61017;37.812;-122.286;2023-04-03T09:56:56;3.63;;;0.77;;
72882;SDS011;61017;37.812;-122.286;2023-04-03T09:58:38;4.57;;;0.93;;
72882;SDS011;61017;37.812;-122.286;2023-04-03T10:05:43;3.67;;;1.10;;
72882;SDS011;61017;37.812;-122.286;2023-04-03T10:07:32;3.35;;;1.10;;
72882;SDS011;61017;37.812;-122.286;2023-04-03T10:09:18;5.13;;;1.00;;
72882;SDS011;61017;37.812;-122.286;2023-04-03T10:11:17;2.95;;;1.10;;
72882;SDS011;61017;37.812;-122.286;2023-04-03T10:12:57;3.92;;;1.13;;
72882;SDS011;61017;37.812;-122.286;2023-04-03T10:14:39;4.70;;;0.95;;
72882;SDS011;61017;37.812;-122.286;2023-04-03T10:16:44;3.53;;;0.77;;
72882;SDS011;61017;37.812;-122.286;2023-04-03T10:20:27;4.22;;;0.95;;
72882;SDS011;61017;37.812;-122.286;2023-04-03T10:22:18;6.95;;;1.00;;
72882;SDS011;61017;37.812;-122.286;2023-04-03T10:30:51;3.28;;;0.88;;
72882;SDS011;61017;37.812;-122.286;2023-04-03T10:32:48;3.15;;;0.95;;
72882;SDS011;61017;37.812;-122.286;2023-04-03T10:34:33;4.05;;;1.10;;
72882;SDS011;61017;37.812;-122.286;2023-04-03T10:36:14;3.08;;;0.80;;
72882;SDS011;61017;37.812;-122.286;2023-04-03T10:37:59;6.55;;;1.13;;
72882;SDS011;61017;37.812;-122.286;2023-04-03T10:39:46;5.65;;;0.98;;
72882;SDS011;61017;37.812;-122.286;2023-04-03T10:43:36;5.47;;;1.00;;
72882;SDS011;61017;37.812;-122.286;2023-04-03T10:48:45;4.88;;;0.93;;
72882;SDS011;61017;37.812;-122.286;2023-04-03T10:52:43;4.03;;;1.10;;
72882;SDS011;61017;37.812;-122.286;2023-04-03T10:54:26;4.05;;;0.90;;
72882;SDS011;61017;37.812;-122.286;2023-04-03T10:56:19;4.03;;;1.00;;
72882;SDS011;61017;37.812;-122.286;2023-04-03T10:57:53;4.63;;;1.02;;
72882;SDS011;61017;37.812;-122.286;2023-04-03T11:01:07;6.63;;;1.20;;
72882;SDS011;61017;37.812;-122.286;2023-04-03T11:02:45;5.65;;;1.15;;
72882;SDS011;61017;37.812;-122.286;2023-04-03T11:04:27;4.78;;;1.20;;
72882;SDS011;61017;37.812;-122.286;2023-04-03T11:06:02;4.25;;;0.85;;
72882;SDS011;61017;37.812;-122.286;2023-04-03T11:07:43;5.05;;;1.02;;
72882;SDS011;61017;37.812;-122.286;2023-04-03T11:09:27;3.17;;;0.95;;
72882;SDS011;61017;37.812;-122.286;2023-04-03T11:11:03;3.40;;;0.90;;
72882;SDS011;61017;37.812;-122.286;2023-04-03T11:12:49;5.55;;;1.00;;
72882;SDS011;61017;37.812;-122.286;2023-04-03T11:14:29;4.97;;;1.02;;
72882;SDS011;61017;37.812;-122.286;2023-04-03T11:16:03;2.50;;;0.80;;
72882;SDS011;61017;37.812;-122.286;2023-04-03T11:17:38;3.17;;;0.90;;
72882;SDS011;61017;37.812;-122.286;2023-04-03T11:20:57;5.15;;;1.20;;
72882;SDS011;61017;37.812;-122.286;2023-04-03T11:22:53;3.63;;;0.80;;
72882;SDS011;61017;37.812;-122.286;2023-04-03T11:24:32;3.22;;;0.90;;
72882;SDS011;61017;37.812;-122.286;2023-04-03T11:26:13;3.10;;;0.90;;
72882;SDS011;61017;37.812;-122.286;2023-04-03T11:27:51;7.45;;;1.15;;
72882;SDS011;61017;37.812;-122.286;2023-04-03T11:29:31;4.97;;;0.85;;
72882;SDS011;61017;37.812;-122.286;2023-04-03T11:31:15;4.13;;;0.80;;
72882;SDS011;61017;37.812;-122.286;2023-04-03T11:35:08;2.72;;;0.80;;
72882;SDS011;61017;37.812;-122.286;2023-04-03T11:36:44;5.73;;;0.90;;
72882;SDS011;61017;37.812;-122.286;2023-04-03T11:38:24;2.97;;;0.90;;
72882;SDS011;61017;37.812;-122.286;2023-04-03T11:41:39;2.92;;;0.80;;
72882;SDS011;61017;37.812;-122.286;2023-04-03T11:45:32;5.43;;;0.93;;
72882;SDS011;61017;37.812;-122.286;2023-04-03T11:47:47;2.95;;;0.70;;
72882;SDS011;61017;37.812;-122.286;2023-04-03T11:53:00;4.78;;;0.77;;
72882;SDS011;61017;37.812;-122.286;2023-04-03T11:54:45;3.42;;;0.73;;
72882;SDS011;61017;37.812;-122.286;2023-04-03T11:59:36;4.20;;;1.00;;
72882;SDS011;61017;37.812;-122.286;2023-04-03T12:01:11;5.90;;;0.95;;
72882;SDS011;61017;37.812;-122.286;2023-04-03T12:05:42;3.67;;;0.80;;
72882;SDS011;61017;37.812;-122.286;2023-04-03T12:07:01;3.63;;;0.75;;
72882;SDS011;61017;37.812;-122.286;2023-04-03T12:10:15;2.63;;;0.88;;
72882;SDS011;61017;37.812;-122.286;2023-04-03T12:11:48;4.30;;;0.70;;
72882;SDS011;61017;37.812;-122.286;2023-04-03T12:13:20;4.43;;;0.90;;
72882;SDS011;61017;37.812;-122.286;2023-04-03T12:14:51;3.72;;;0.95;;
72882;SDS011;61017;37.812;-122.286;2023-04-03T12:22:32;3.03;;;0.82;;
72882;SDS011;61017;37.812;-122.286;2023-04-03T12:25:49;2.70;;;1.00;;
72882;SDS011;61017;37.812;-122.286;2023-04-03T12:27:23;3.67;;;0.60;;
72882;SDS011;61017;37.812;-122.286;2023-04-03T12:28:56;5.15;;;0.80;;
72882;SDS011;61017;37.812;-122.286;2023-04-03T12:30:29;3.80;;;0.80;;
72882;SDS011;61017;37.812;-122.286;2023-04-03T12:32:06;4.32;;;0.80;;
72882;SDS011;61017;37.812;-122.286;2023-04-03T12:35:36;1.75;;;0.60;;
72882;SDS011;61017;37.812;-122.286;2023-04-03T12:41:18;2.13;;;0.60;;
72882;SDS011;61017;37.812;-122.286;2023-04-03T12:46:52;4.68;;;0.80;;
72882;SDS011;61017;37.812;-122.286;2023-04-03T12:48:25;3.38;;;0.88;;
72882;SDS011;61017;37.812;-122.286;2023-04-03T12:49:58;2.30;;;0.65;;
72882;SDS011;61017;37.812;-122.286;2023-04-03T12:51:38;2.03;;;0.60;;
72882;SDS011;61017;37.812;-122.286;2023-04-03T12:53:19;4.40;;;0.60;;
72882;SDS011;61017;37.812;-122.286;2023-04-03T12:54:55;2.88;;;0.73;;
72882;SDS011;61017;37.812;-122.286;2023-04-03T12:56:28;2.53;;;0.70;;
72882;SDS011;61017;37.812;-122.286;2023-04-03T12:59:57;3.40;;;0.65;;
72882;SDS011;61017;37.812;-122.286;2023-04-03T13:01:29;2.42;;;0.52;;
72882;SDS011;61017;37.812;-122.286;2023-04-03T13:03:02;2.63;;;0.80;;
72882;SDS011;61017;37.812;-122.286;2023-04-03T13:04:35;3.13;;;0.90;;
72882;SDS011;61017;37.812;-122.286;2023-04-03T13:06:19;4.63;;;0.70;;
72882;SDS011;61017;37.812;-122.286;2023-04-03T13:08:02;2.15;;;0.65;;
72882;SDS011;61017;37.812;-122.286;2023-04-03T13:09:36;2.28;;;0.75;;
72882;SDS011;61017;37.812;-122.286;2023-04-03T13:11:09;1.80;;;0.63;;
72882;SDS011;61017;37.812;-122.286;2023-04-03T13:12:49;3.15;;;0.80;;
72882;SDS011;61017;37.812;-122.286;2023-04-03T13:14:25;2.28;;;0.68;;
72882;SDS011;61017;37.812;-122.286;2023-04-03T13:15:58;2.88;;;0.65;;
72882;SDS011;61017;37.812;-122.286;2023-04-03T13:17:38;2.42;;;0.68;;
72882;SDS011;61017;37.812;-122.286;2023-04-03T13:19:16;2.58;;;0.55;;
72882;SDS011;61017;37.812;-122.286;2023-04-03T13:20:48;3.13;;;0.55;;
72882;SDS011;61017;37.812;-122.286;2023-04-03T13:22:31;2.53;;;0.80;;
72882;SDS011;61017;37.812;-122.286;2023-04-03T13:24:06;2.95;;;0.88;;
72882;SDS011;61017;37.812;-122.286;2023-04-03T13:25:41;2.40;;;0.68;;
72882;SDS011;61017;37.812;-122.286;2023-04-03T13:27:15;4.30;;;0.60;;
72882;SDS011;61017;37.812;-122.286;2023-04-03T13:28:47;4.13;;;0.90;;
72882;SDS011;61017;37.812;-122.286;2023-04-03T13:30:35;3.20;;;0.80;;
72882;SDS011;61017;37.812;-122.286;2023-04-03T13:32:13;2.63;;;0.60;;
72882;SDS011;61017;37.812;-122.286;2023-04-03T13:33:55;2.67;;;0.60;;
72882;SDS011;61017;37.812;-122.286;2023-04-03T13:35:47;2.05;;;0.63;;
72882;SDS011;61017;37.812;-122.286;2023-04-03T13:37:28;3.75;;;0.90;;
72882;SDS011;61017;37.812;-122.286;2023-04-03T13:39:06;2.38;;;0.70;;
72882;SDS011;61017;37.812;-122.286;2023-04-03T13:40:59;5.00;;;0.80;;
72882;SDS011;61017;37.812;-122.286;2023-04-03T13:42:34;1.48;;;0.43;;
72882;SDS011;61017;37.812;-122.286;2023-04-03T13:47:42;4.05;;;0.80;;
72882;SDS011;61017;37.812;-122.286;2023-04-03T13:49:22;3.83;;;0.50;;
72882;SDS011;61017;37.812;-122.286;2023-04-03T13:54:21;4.45;;;0.73;;
72882;SDS011;61017;37.812;-122.286;2023-04-03T13:57:28;3.63;;;0.80;;
72882;SDS011;61017;37.812;-122.286;2023-04-03T14:02:29;2.78;;;0.60;;
72882;SDS011;61017;37.812;-122.286;2023-04-03T14:04:11;2.95;;;0.70;;
72882;SDS011;61017;37.812;-122.286;2023-04-03T14:05:45;3.10;;;0.60;;
72882;SDS011;61017;37.812;-122.286;2023-04-03T14:07:17;3.90;;;0.75;;
72882;SDS011;61017;37.812;-122.286;2023-04-03T14:08:48;1.83;;;0.60;;
72882;SDS011;61017;37.812;-122.286;2023-04-03T14:10:20;2.72;;;0.40;;
72882;SDS011;61017;37.812;-122.286;2023-04-03T14:11:53;1.55;;;0.60;;
72882;SDS011;61017;37.812;-122.286;2023-04-03T14:13:30;4.40;;;0.93;;
72882;SDS011;61017;37.812;-122.286;2023-04-03T14:15:06;3.65;;;0.70;;
72882;SDS011;61017;37.812;-122.286;2023-04-03T14:16:55;4.22;;;0.95;;
72882;SDS011;61017;37.812;-122.286;2023-04-03T14:18:29;3.30;;;0.90;;
72882;SDS011;61017;37.812;-122.286;2023-04-03T14:20:00;4.28;;;1.25;;
72882;SDS011;61017;37.812;-122.286;2023-04-03T14:21:32;3.08;;;1.08;;
72882;SDS011;61017;37.812;-122.286;2023-04-03T15:37:01;2.35;;;0.50;;
72882;SDS011;61017;37.812;-122.286;2023-04-03T15:38:33;5.78;;;0.85;;
72882;SDS011;61017;37.812;-122.286;2023-04-03T15:40:05;2.83;;;0.60;;
72882;SDS011;61017;37.812;-122.286;2023-04-03T15:41:38;3.40;;;0.70;;
72882;SDS011;61017;37.812;-122.286;2023-04-03T15:43:09;2.03;;;0.50;;
72882;SDS011;61017;37.812;-122.286;2023-04-03T15:44:41;2.55;;;0.50;;
72882;SDS011;61017;37.812;-122.286;2023-04-03T15:46:12;1.60;;;0.45;;
72882;SDS011;61017;37.812;-122.286;2023-04-03T15:47:44;1.95;;;0.50;;
72882;SDS011;61017;37.812;-122.286;2023-04-03T15:49:16;1.95;;;0.22;;
72882;SDS011;61017;37.812;-122.286;2023-04-03T15:50:48;4.00;;;0.75;;
72882;SDS011;61017;37.812;-122.286;2023-04-03T15:52:20;3.20;;;0.52;;
72882;SDS011;61017;37.812;-122.286;2023-04-03T15:53:51;1.73;;;0.52;;
72882;SDS011;61017;37.812;-122.286;2023-04-03T15:55:24;2.45;;;0.63;;
72882;SDS011;61017;37.812;-122.286;2023-04-03T15:58:27;1.55;;;0.50;;
72882;SDS011;61017;37.812;-122.286;2023-04-03T15:59:59;2.90;;;0.50;;
72882;SDS011;61017;37.812;-122.286;2023-04-03T16:01:30;4.32;;;0.68;;
72882;SDS011;61017;37.812;-122.286;2023-04-03T16:03:04;4.13;;;0.60;;
72882;SDS011;61017;37.812;-122.286;2023-04-03T16:04:38;3.20;;;0.55;;
72882;SDS011;61017;37.812;-122.286;2023-04-03T16:06:12;3.28;;;0.50;;
72882;SDS011;61017;37.812;-122.286;2023-04-03T16:07:45;0.98;;;0.43;;
72882;SDS011;61017;37.812;-122.286;2023-04-03T16:09:18;1.30;;;0.50;;
72882;SDS011;61017;37.812;-122.286;2023-04-03T16:10:50;1.48;;;0.47;;
72882;SDS011;61017;37.812;-122.286;2023-04-03T16:12:21;3.53;;;0.50;;
72882;SDS011;61017;37.812;-122.286;2023-04-03T16:13:53;5.53;;;0.73;;
72882;SDS011;61017;37.812;-122.286;2023-04-03T16:15:26;3.63;;;0.60;;
72882;SDS011;61017;37.812;-122.286;2023-04-03T16:16:57;1.70;;;0.50;;
72882;SDS011;61017;37.812;-122.286;2023-04-03T16:18:38;1.42;;;0.60;;
72882;SDS011;61017;37.812;-122.286;2023-04-03T16:20:10;2.65;;;0.60;;
72882;SDS011;61017;37.812;-122.286;2023-04-03T16:21:43;2.15;;;0.60;;
72882;SDS011;61017;37.812;-122.286;2023-04-03T16:23:15;1.67;;;0.60;;
72882;SDS011;61017;37.812;-122.286;2023-04-03T16:24:47;3.25;;;0.75;;
72882;SDS011;61017;37.812;-122.286;2023-04-03T16:26:19;2.10;;;0.63;;
72882;SDS011;61017;37.812;-122.286;2023-04-03T16:27:50;2.20;;;0.60;;
72882;SDS011;61017;37.812;-122.286;2023-04-03T16:29:22;2.88;;;0.70;;
72882;SDS011;61017;37.812;-122.286;2023-04-03T16:30:54;2.85;;;0.68;;
72882;SDS011;61017;37.812;-122.286;2023-04-03T16:32:26;4.13;;;0.60;;
72882;SDS011;61017;37.812;-122.286;2023-04-03T16:34:01;1.58;;;0.57;;
72882;SDS011;61017;37.812;-122.286;2023-04-03T16:35:33;2.75;;;0.50;;
72882;SDS011;61017;37.812;-122.286;2023-04-03T16:37:04;2.63;;;0.50;;
72882;SDS011;61017;37.812;-122.286;2023-04-03T16:38:36;3.97;;;0.70;;
72882;SDS011;61017;37.812;-122.286;2023-04-03T16:40:08;1.88;;;0.50;;
72882;SDS011;61017;37.812;-122.286;2023-04-03T16:41:40;2.83;;;0.52;;
72882;SDS011;61017;37.812;-122.286;2023-04-03T16:43:12;1.75;;;0.60;;
72882;SDS011;61017;37.812;-122.286;2023-04-03T16:44:43;2.22;;;0.60;;
72882;SDS011;61017;37.812;-122.286;2023-04-03T16:46:15;4.88;;;0.68;;
72882;SDS011;61017;37.812;-122.286;2023-04-03T16:47:46;4.13;;;0.65;;
72882;SDS011;61017;37.812;-122.286;2023-04-03T16:49:18;1.75;;;0.40;;
72882;SDS011;61017;37.812;-122.286;2023-04-03T16:50:50;3.03;;;0.50;;
72882;SDS011;61017;37.812;-122.286;2023-04-03T16:52:21;1.55;;;0.60;;
72882;SDS011;61017;37.812;-122.286;2023-04-03T16:53:53;1.80;;;0.45;;
72882;SDS011;61017;37.812;-122.286;2023-04-03T16:55:25;2.08;;;0.60;;
72882;SDS011;61017;37.812;-122.286;2023-04-03T16:56:56;2.10;;;0.60;;
72882;SDS011;61017;37.812;-122.286;2023-04-03T16:58:29;1.50;;;0.50;;
72882;SDS011;61017;37.812;-122.286;2023-04-03T17:00:00;2.55;;;0.70;;
72882;SDS011;61017;37.812;-122.286;2023-04-03T17:01:32;1.95;;;0.52;;
72882;SDS011;61017;37.812;-122.286;2023-04-03T17:03:03;2.70;;;0.68;;
72882;SDS011;61017;37.812;-122.286;2023-04-03T17:04:35;2.13;;;0.68;;
72882;SDS011;61017;37.812;-122.286;2023-04-03T17:06:06;1.40;;;0.55;;
72882;SDS011;61017;37.812;-122.286;2023-04-03T17:07:41;3.13;;;0.70;;
72882;SDS011;61017;37.812;-122.286;2023-04-03T17:09:13;3.42;;;0.60;;
72882;SDS011;61017;37.812;-122.286;2023-04-03T17:10:46;4.15;;;0.50;;
72882;SDS011;61017;37.812;-122.286;2023-04-03T17:12:17;1.98;;;0.52;;
72882;SDS011;61017;37.812;-122.286;2023-04-03T17:13:49;3.38;;;0.60;;
72882;SDS011;61017;37.812;-122.286;2023-04-03T17:15:21;3.58;;;0.50;;
72882;SDS011;61017;37.812;-122.286;2023-04-03T17:16:53;3.10;;;0.70;;
72882;SDS011;61017;37.812;-122.286;2023-04-03T17:18:25;1.92;;;0.35;;
72882;SDS011;61017;37.812;-122.286;2023-04-03T17:19:57;2.25;;;0.57;;
72882;SDS011;61017;37.812;-122.286;2023-04-03T17:21:29;1.70;;;0.50;;
72882;SDS011;61017;37.812;-122.286;2023-04-03T17:23:02;1.58;;;0.40;;
72882;SDS011;61017;37.812;-122.286;2023-04-03T17:24:34;2.22;;;0.40;;
72882;SDS011;61017;37.812;-122.286;2023-04-03T17:26:06;4.13;;;0.60;;
72882;SDS011;61017;37.812;-122.286;2023-04-03T17:27:38;2.37;;;0.50;;
72882;SDS011;61017;37.812;-122.286;2023-04-03T17:29:10;2.42;;;0.70;;
72882;SDS011;61017;37.812;-122.286;2023-04-03T17:30:42;1.10;;;0.30;;
72882;SDS011;61017;37.812;-122.286;2023-04-03T17:32:13;1.67;;;0.40;;
72882;SDS011;61017;37.812;-122.286;2023-04-03T17:33:45;1.00;;;0.43;;
72882;SDS011;61017;37.812;-122.286;2023-04-03T17:35:16;1.05;;;0.40;;
72882;SDS011;61017;37.812;-122.286;2023-04-03T17:36:48;2.55;;;0.50;;
72882;SDS011;61017;37.812;-122.286;2023-04-03T17:38:20;1.75;;;0.60;;
72882;SDS011;61017;37.812;-122.286;2023-04-03T17:39:51;2.30;;;0.47;;
72882;SDS011;61017;37.812;-122.286;2023-04-03T17:41:23;1.67;;;0.60;;
72882;SDS011;61017;37.812;-122.286;2023-04-03T17:42:55;1.55;;;0.50;;
72882;SDS011;61017;37.812;-122.286;2023-04-03T17:44:26;1.60;;;0.50;;
72882;SDS011;61017;37.812;-122.286;2023-04-03T17:46:01;2.13;;;0.57;;
72882;SDS011;61017;37.812;-122.286;2023-04-03T17:47:35;0.82;;;0.40;;
72882;SDS011;61017;37.812;-122.286;2023-04-03T17:49:06;1.77;;;0.50;;
72882;SDS011;61017;37.812;-122.286;2023-04-03T17:50:38;1.70;;;0.50;;
72882;SDS011;61017;37.812;-122.286;2023-04-03T17:52:10;1.42;;;0.50;;
72882;SDS011;61017;37.812;-122.286;2023-04-03T17:53:41;4.35;;;0.40;;
72882;SDS011;61017;37.812;-122.286;2023-04-03T17:55:13;2.40;;;0.50;;
72882;SDS011;61017;37.812;-122.286;2023-04-03T17:56:45;1.98;;;0.57;;
72882;SDS011;61017;37.812;-122.286;2023-04-03T17:58:17;1.95;;;0.47;;
72882;SDS011;61017;37.812;-122.286;2023-04-03T17:59:49;1.73;;;0.40;;
72882;SDS011;61017;37.812;-122.286;2023-04-03T18:01:24;6.05;;;0.70;;
72882;SDS011;61017;37.812;-122.286;2023-04-03T18:02:57;2.50;;;0.52;;
72882;SDS011;61017;37.812;-122.286;2023-04-03T18:04:29;2.67;;;0.50;;
72882;SDS011;61017;37.812;-122.286;2023-04-03T18:06:04;3.47;;;0.43;;
72882;SDS011;61017;37.812;-122.286;2023-04-03T18:07:39;3.35;;;0.63;;
72882;SDS011;61017;37.812;-122.286;2023-04-03T18:09:16;1.90;;;0.40;;
72882;SDS011;61017;37.812;-122.286;2023-04-03T18:10:49;0.95;;;0.30;;
72882;SDS011;61017;37.812;-122.286;2023-04-03T18:12:41;3.00;;;0.50;;
72882;SDS011;61017;37.812;-122.286;2023-04-03T18:14:13;2.50;;;0.50;;
72882;SDS011;61017;37.812;-122.286;2023-04-03T18:15:48;2.65;;;0.50;;
72882;SDS011;61017;37.812;-122.286;2023-04-03T18:17:20;2.42;;;0.60;;
72882;SDS011;61017;37.812;-122.286;2023-04-03T18:18:51;1.30;;;0.50;;
72882;SDS011;61017;37.812;-122.286;2023-04-03T18:20:23;2.20;;;0.50;;
72882;SDS011;61017;37.812;-122.286;2023-04-03T18:21:56;2.15;;;0.40;;
72882;SDS011;61017;37.812;-122.286;2023-04-03T18:23:31;1.48;;;0.40;;
72882;SDS011;61017;37.812;-122.286;2023-04-03T18:25:05;0.60;;;0.40;;
72882;SDS011;61017;37.812;-122.286;2023-04-03T18:26:40;1.30;;;0.40;;
72882;SDS011;61017;37.812;-122.286;2023-04-03T18:28:14;5.53;;;0.40;;
72882;SDS011;61017;37.812;-122.286;2023-04-03T18:29:53;2.20;;;0.47;;
72882;SDS011;61017;37.812;-122.286;2023-04-03T18:31:29;1.55;;;0.40;;
72882;SDS011;61017;37.812;-122.286;2023-04-03T18:33:03;0.98;;;0.30;;
72882;SDS011;61017;37.812;-122.286;2023-04-03T18:34:34;3.85;;;0.50;;
72882;SDS011;61017;37.812;-122.286;2023-04-03T18:36:06;2.40;;;0.50;;
72882;SDS011;61017;37.812;-122.286;2023-04-03T18:37:38;2.70;;;0.47;;
72882;SDS011;61017;37.812;-122.286;2023-04-03T18:39:09;1.35;;;0.40;;